sensor_id;sensor_type;location;lat;lon;timestamp;temperature;humidity
36002;DHT22;22070;50.922;5.430;2023-02-11T00:02:06;6.90;99.90
36002;DHT22;22070;50.922;5.430;2023-02-11T00:04:32;6.90;99.90
36002;DHT22;22070;50.922;5.430;2023-02-11T00:06:58;6.90;99.90
36002;DHT22;22070;50.922;5.430;2023-02-11T00:09:24;6.90;99.90
36002;DHT22;22070;50.922;5.430;2023-02-11T00:11:50;6.80;99.90
36002;DHT22;22070;50.922;5.430;2023-02-11T00:14:15;6.70;99.90
36002;DHT22;22070;50.922;5.430;2023-02-11T00:16:41;6.80;99.90
36002;DHT22;22070;50.922;5.430;2023-02-11T00:19:07;6.80;99.90
36002;DHT22;22070;50.922;5.430;2023-02-11T00:21:34;6.80;99.90
36002;DHT22;22070;50.922;5.430;2023-02-11T00:24:00;6.80;99.90
36002;DHT22;22070;50.922;5.430;2023-02-11T00:26:33;6.70;99.90
36002;DHT22;22070;50.922;5.430;2023-02-11T00:29:00;6.70;99.90
36002;DHT22;22070;50.922;5.430;2023-02-11T00:31:26;6.80;99.90
36002;DHT22;22070;50.922;5.430;2023-02-11T00:33:52;6.70;99.90
36002;DHT22;22070;50.922;5.430;2023-02-11T00:36:21;6.70;99.90
36002;DHT22;22070;50.922;5.430;2023-02-11T00:38:48;6.60;99.90
36002;DHT22;22070;50.922;5.430;2023-02-11T00:41:15;6.50;99.90
36002;DHT22;22070;50.922;5.430;2023-02-11T00:43:42;6.00;99.90
36002;DHT22;22070;50.922;5.430;2023-02-11T00:46:08;6.50;99.90
36002;DHT22;22070;50.922;5.430;2023-02-11T00:48:34;6.50;99.90
36002;DHT22;22070;50.922;5.430;2023-02-11T00:51:01;6.50;99.90
36002;DHT22;22070;50.922;5.430;2023-02-11T00:53:28;6.50;99.90
36002;DHT22;22070;50.922;5.430;2023-02-11T00:55:55;6.40;99.90
36002;DHT22;22070;50.922;5.430;2023-02-11T00:58:21;6.40;99.90
36002;DHT22;22070;50.922;5.430;2023-02-11T01:00:47;6.50;99.90
36002;DHT22;22070;50.922;5.430;2023-02-11T01:03:13;6.60;99.90
36002;DHT22;22070;50.922;5.430;2023-02-11T01:05:39;6.50;99.90
36002;DHT22;22070;50.922;5.430;2023-02-11T01:08:05;6.40;99.90
36002;DHT22;22070;50.922;5.430;2023-02-11T01:10:32;6.40;99.90
36002;DHT22;22070;50.922;5.430;2023-02-11T01:12:57;6.50;99.90
36002;DHT22;22070;50.922;5.430;2023-02-11T01:15:23;6.50;99.90
36002;DHT22;22070;50.922;5.430;2023-02-11T01:17:49;6.50;99.90
36002;DHT22;22070;50.922;5.430;2023-02-11T01:20:21;6.50;99.90
36002;DHT22;22070;50.922;5.430;2023-02-11T01:22:50;6.70;99.90
36002;DHT22;22070;50.922;5.430;2023-02-11T01:25:16;6.60;99.90
36002;DHT22;22070;50.922;5.430;2023-02-11T01:27:42;6.40;99.90
36002;DHT22;22070;50.922;5.430;2023-02-11T01:30:09;6.50;99.90
36002;DHT22;22070;50.922;5.430;2023-02-11T01:32:37;6.60;99.90
36002;DHT22;22070;50.922;5.430;2023-02-11T01:35:04;6.50;99.90
36002;DHT22;22070;50.922;5.430;2023-02-11T01:37:32;6.70;99.90
36002;DHT22;22070;50.922;5.430;2023-02-11T01:39:58;6.70;99.90
36002;DHT22;22070;50.922;5.430;2023-02-11T01:42:25;6.70;99.90
36002;DHT22;22070;50.922;5.430;2023-02-11T01:44:52;6.80;99.90
36002;DHT22;22070;50.922;5.430;2023-02-11T01:47:19;6.80;99.90
36002;DHT22;22070;50.922;5.430;2023-02-11T01:49:51;6.80;99.90
36002;DHT22;22070;50.922;5.430;2023-02-11T01:52:24;6.90;99.90
36002;DHT22;22070;50.922;5.430;2023-02-11T01:54:54;6.70;99.90
36002;DHT22;22070;50.922;5.430;2023-02-11T01:57:44;6.60;99.90
36002;DHT22;22070;50.922;5.430;2023-02-11T02:00:16;6.60;99.90
36002;DHT22;22070;50.922;5.430;2023-02-11T02:02:57;6.60;99.90
36002;DHT22;22070;50.922;5.430;2023-02-11T02:05:47;6.60;99.90
36002;DHT22;22070;50.922;5.430;2023-02-11T02:08:50;6.60;99.90
36002;DHT22;22070;50.922;5.430;2023-02-11T02:11:17;6.50;99.90
36002;DHT22;22070;50.922;5.430;2023-02-11T02:13:43;6.40;99.90
36002;DHT22;22070;50.922;5.430;2023-02-11T02:16:15;6.60;99.90
36002;DHT22;22070;50.922;5.430;2023-02-11T02:19:28;6.50;99.90
36002;DHT22;22070;50.922;5.430;2023-02-11T02:24:58;6.60;99.90
36002;DHT22;22070;50.922;5.430;2023-02-11T02:35:34;6.70;99.90
36002;DHT22;22070;50.922;5.430;2023-02-11T02:38:15;6.70;99.90
36002;DHT22;22070;50.922;5.430;2023-02-11T02:40:51;6.70;99.90
36002;DHT22;22070;50.922;5.430;2023-02-11T02:43:20;6.70;99.90
36002;DHT22;22070;50.922;5.430;2023-02-11T02:45:47;6.70;99.90
36002;DHT22;22070;50.922;5.430;2023-02-11T02:48:31;7.00;99.90
36002;DHT22;22070;50.922;5.430;2023-02-11T02:51:07;6.50;99.90
36002;DHT22;22070;50.922;5.430;2023-02-11T02:54:12;6.60;99.90
36002;DHT22;22070;50.922;5.430;2023-02-11T03:05:05;6.70;99.90
36002;DHT22;22070;50.922;5.430;2023-02-11T03:10:35;6.60;99.90
36002;DHT22;22070;50.922;5.430;2023-02-11T03:13:02;6.60;99.90
36002;DHT22;22070;50.922;5.430;2023-02-11T03:15:40;6.60;99.90
36002;DHT22;22070;50.922;5.430;2023-02-11T03:18:11;6.70;99.90
36002;DHT22;22070;50.922;5.430;2023-02-11T03:20:41;6.60;99.90
36002;DHT22;22070;50.922;5.430;2023-02-11T03:23:12;6.60;99.90
36002;DHT22;22070;50.922;5.430;2023-02-11T03:25:50;6.80;99.90
36002;DHT22;22070;50.922;5.430;2023-02-11T03:29:03;6.80;99.90
36002;DHT22;22070;50.922;5.430;2023-02-11T03:31:46;6.80;99.90
36002;DHT22;22070;50.922;5.430;2023-02-11T03:34:41;6.90;99.90
36002;DHT22;22070;50.922;5.430;2023-02-11T03:39:59;6.90;99.90
36002;DHT22;22070;50.922;5.430;2023-02-11T03:42:30;6.80;99.90
36002;DHT22;22070;50.922;5.430;2023-02-11T03:45:02;6.90;99.90
36002;DHT22;22070;50.922;5.430;2023-02-11T03:47:34;6.90;99.90
36002;DHT22;22070;50.922;5.430;2023-02-11T03:50:03;7.20;99.90
36002;DHT22;22070;50.922;5.430;2023-02-11T03:52:31;6.90;99.90
36002;DHT22;22070;50.922;5.430;2023-02-11T03:54:59;7.00;99.90
36002;DHT22;22070;50.922;5.430;2023-02-11T03:57:26;7.00;99.90
36002;DHT22;22070;50.922;5.430;2023-02-11T03:59:57;6.80;99.90
36002;DHT22;22070;50.922;5.430;2023-02-11T04:02:28;7.00;99.90
36002;DHT22;22070;50.922;5.430;2023-02-11T04:04:54;7.30;99.90
36002;DHT22;22070;50.922;5.430;2023-02-11T04:07:23;6.90;99.90
36002;DHT22;22070;50.922;5.430;2023-02-11T04:09:50;6.80;99.90
36002;DHT22;22070;50.922;5.430;2023-02-11T04:12:16;6.80;99.90
36002;DHT22;22070;50.922;5.430;2023-02-11T04:14:42;6.80;99.90
36002;DHT22;22070;50.922;5.430;2023-02-11T04:17:07;6.90;99.90
36002;DHT22;22070;50.922;5.430;2023-02-11T04:19:33;6.90;99.90
36002;DHT22;22070;50.922;5.430;2023-02-11T04:21:59;6.90;99.90
36002;DHT22;22070;50.922;5.430;2023-02-11T04:24:25;6.90;99.90
36002;DHT22;22070;50.922;5.430;2023-02-11T04:26:51;6.90;99.90
36002;DHT22;22070;50.922;5.430;2023-02-11T04:29:17;6.70;99.90
36002;DHT22;22070;50.922;5.430;2023-02-11T04:31:43;7.00;99.90
36002;DHT22;22070;50.922;5.430;2023-02-11T04:34:09;7.00;99.90
36002;DHT22;22070;50.922;5.430;2023-02-11T04:36:35;7.00;99.90
36002;DHT22;22070;50.922;5.430;2023-02-11T04:39:01;7.00;99.90
36002;DHT22;22070;50.922;5.430;2023-02-11T04:41:26;7.00;99.90
36002;DHT22;22070;50.922;5.430;2023-02-11T04:43:52;7.00;99.90
36002;DHT22;22070;50.922;5.430;2023-02-11T04:46:18;6.90;99.90
36002;DHT22;22070;50.922;5.430;2023-02-11T04:48:44;6.90;99.90
36002;DHT22;22070;50.922;5.430;2023-02-11T04:51:09;6.90;99.90
36002;DHT22;22070;50.922;5.430;2023-02-11T04:53:36;6.90;99.90
36002;DHT22;22070;50.922;5.430;2023-02-11T04:56:02;6.90;99.90
36002;DHT22;22070;50.922;5.430;2023-02-11T04:58:28;6.80;99.90
36002;DHT22;22070;50.922;5.430;2023-02-11T05:00:54;6.80;99.90
36002;DHT22;22070;50.922;5.430;2023-02-11T05:03:22;6.80;99.90
36002;DHT22;22070;50.922;5.430;2023-02-11T05:05:48;6.80;99.90
36002;DHT22;22070;50.922;5.430;2023-02-11T05:08:14;6.80;99.90
36002;DHT22;22070;50.922;5.430;2023-02-11T05:10:40;6.80;99.90
36002;DHT22;22070;50.922;5.430;2023-02-11T05:13:10;6.80;99.90
36002;DHT22;22070;50.922;5.430;2023-02-11T05:15:35;6.80;99.90
36002;DHT22;22070;50.922;5.430;2023-02-11T05:18:01;6.80;99.90
36002;DHT22;22070;50.922;5.430;2023-02-11T05:20:28;6.80;99.90
36002;DHT22;22070;50.922;5.430;2023-02-11T05:22:54;6.80;99.90
36002;DHT22;22070;50.922;5.430;2023-02-11T05:25:20;6.80;99.90
36002;DHT22;22070;50.922;5.430;2023-02-11T05:27:46;6.80;99.90
36002;DHT22;22070;50.922;5.430;2023-02-11T05:30:12;6.70;99.90
36002;DHT22;22070;50.922;5.430;2023-02-11T05:32:38;6.60;99.90
36002;DHT22;22070;50.922;5.430;2023-02-11T05:35:08;7.00;99.90
36002;DHT22;22070;50.922;5.430;2023-02-11T05:37:34;6.90;99.90
36002;DHT22;22070;50.922;5.430;2023-02-11T05:40:00;6.90;99.90
36002;DHT22;22070;50.922;5.430;2023-02-11T05:42:31;6.90;99.90
36002;DHT22;22070;50.922;5.430;2023-02-11T05:44:57;7.20;99.90
36002;DHT22;22070;50.922;5.430;2023-02-11T05:47:23;6.80;99.90
36002;DHT22;22070;50.922;5.430;2023-02-11T05:49:49;6.80;99.90
36002;DHT22;22070;50.922;5.430;2023-02-11T05:52:15;6.70;99.90
36002;DHT22;22070;50.922;5.430;2023-02-11T05:54:42;6.90;99.90
36002;DHT22;22070;50.922;5.430;2023-02-11T05:57:08;6.80;99.90
36002;DHT22;22070;50.922;5.430;2023-02-11T05:59:34;6.50;99.90
36002;DHT22;22070;50.922;5.430;2023-02-11T06:02:00;6.80;99.90
36002;DHT22;22070;50.922;5.430;2023-02-11T06:04:26;6.70;99.90
36002;DHT22;22070;50.922;5.430;2023-02-11T06:06:52;6.70;99.90
36002;DHT22;22070;50.922;5.430;2023-02-11T06:09:18;6.70;99.90
36002;DHT22;22070;50.922;5.430;2023-02-11T06:11:43;6.90;99.90
36002;DHT22;22070;50.922;5.430;2023-02-11T06:14:09;6.90;99.90
36002;DHT22;22070;50.922;5.430;2023-02-11T06:16:35;6.90;99.90
36002;DHT22;22070;50.922;5.430;2023-02-11T06:19:01;6.90;99.90
36002;DHT22;22070;50.922;5.430;2023-02-11T06:21:27;6.90;99.90
36002;DHT22;22070;50.922;5.430;2023-02-11T06:23:53;6.80;99.90
36002;DHT22;22070;50.922;5.430;2023-02-11T06:26:21;6.80;99.90
36002;DHT22;22070;50.922;5.430;2023-02-11T06:28:47;6.80;99.90
36002;DHT22;22070;50.922;5.430;2023-02-11T06:31:15;6.80;99.90
36002;DHT22;22070;50.922;5.430;2023-02-11T06:33:41;6.80;99.90
36002;DHT22;22070;50.922;5.430;2023-02-11T06:36:17;6.80;99.90
36002;DHT22;22070;50.922;5.430;2023-02-11T06:38:44;6.80;99.90
36002;DHT22;22070;50.922;5.430;2023-02-11T06:41:11;6.90;99.90
36002;DHT22;22070;50.922;5.430;2023-02-11T06:43:37;6.80;99.90
36002;DHT22;22070;50.922;5.430;2023-02-11T06:46:03;6.90;99.90
36002;DHT22;22070;50.922;5.430;2023-02-11T06:48:29;6.90;99.90
36002;DHT22;22070;50.922;5.430;2023-02-11T06:50:55;6.90;99.90
36002;DHT22;22070;50.922;5.430;2023-02-11T06:53:21;6.90;99.90
36002;DHT22;22070;50.922;5.430;2023-02-11T06:55:47;6.90;99.90
36002;DHT22;22070;50.922;5.430;2023-02-11T06:58:12;6.90;99.90
36002;DHT22;22070;50.922;5.430;2023-02-11T07:00:39;7.00;99.90
36002;DHT22;22070;50.922;5.430;2023-02-11T07:03:06;7.00;99.90
36002;DHT22;22070;50.922;5.430;2023-02-11T07:05:33;7.00;99.90
36002;DHT22;22070;50.922;5.430;2023-02-11T07:08:02;7.10;99.90
36002;DHT22;22070;50.922;5.430;2023-02-11T07:10:28;7.00;99.90
36002;DHT22;22070;50.922;5.430;2023-02-11T07:12:54;7.00;99.90
36002;DHT22;22070;50.922;5.430;2023-02-11T07:15:19;7.00;99.90
36002;DHT22;22070;50.922;5.430;2023-02-11T07:17:45;7.00;99.90
36002;DHT22;22070;50.922;5.430;2023-02-11T07:20:11;7.10;99.90
36002;DHT22;22070;50.922;5.430;2023-02-11T07:22:39;7.00;99.90
36002;DHT22;22070;50.922;5.430;2023-02-11T07:25:05;7.10;99.90
36002;DHT22;22070;50.922;5.430;2023-02-11T07:27:31;7.00;99.90
36002;DHT22;22070;50.922;5.430;2023-02-11T07:29:57;7.00;99.90
36002;DHT22;22070;50.922;5.430;2023-02-11T07:32:22;7.00;99.90
36002;DHT22;22070;50.922;5.430;2023-02-11T07:34:48;6.90;99.90
36002;DHT22;22070;50.922;5.430;2023-02-11T07:37:14;7.00;99.90
36002;DHT22;22070;50.922;5.430;2023-02-11T07:39:40;7.10;99.90
36002;DHT22;22070;50.922;5.430;2023-02-11T07:42:05;7.00;99.90
36002;DHT22;22070;50.922;5.430;2023-02-11T07:44:31;7.10;99.90
36002;DHT22;22070;50.922;5.430;2023-02-11T07:46:58;7.10;99.90
36002;DHT22;22070;50.922;5.430;2023-02-11T07:49:24;7.00;99.90
36002;DHT22;22070;50.922;5.430;2023-02-11T07:51:50;7.00;99.90
36002;DHT22;22070;50.922;5.430;2023-02-11T07:54:16;6.90;99.90
36002;DHT22;22070;50.922;5.430;2023-02-11T07:56:42;7.00;99.90
36002;DHT22;22070;50.922;5.430;2023-02-11T07:59:09;7.00;99.90
36002;DHT22;22070;50.922;5.430;2023-02-11T08:01:34;6.70;99.90
36002;DHT22;22070;50.922;5.430;2023-02-11T08:04:01;7.00;99.90
36002;DHT22;22070;50.922;5.430;2023-02-11T08:06:32;6.70;99.90
36002;DHT22;22070;50.922;5.430;2023-02-11T08:09:03;7.10;99.90
36002;DHT22;22070;50.922;5.430;2023-02-11T08:11:29;7.10;99.90
36002;DHT22;22070;50.922;5.430;2023-02-11T08:13:55;7.10;99.90
36002;DHT22;22070;50.922;5.430;2023-02-11T08:16:25;7.10;99.90
36002;DHT22;22070;50.922;5.430;2023-02-11T08:18:52;7.10;99.90
36002;DHT22;22070;50.922;5.430;2023-02-11T08:21:19;7.10;99.90
36002;DHT22;22070;50.922;5.430;2023-02-11T08:23:45;7.10;99.90
36002;DHT22;22070;50.922;5.430;2023-02-11T08:26:15;7.10;99.90
36002;DHT22;22070;50.922;5.430;2023-02-11T08:28:43;7.10;99.90
36002;DHT22;22070;50.922;5.430;2023-02-11T08:31:32;7.10;99.90
36002;DHT22;22070;50.922;5.430;2023-02-11T08:33:58;7.20;99.90
36002;DHT22;22070;50.922;5.430;2023-02-11T08:36:30;7.20;99.90
36002;DHT22;22070;50.922;5.430;2023-02-11T08:38:58;7.10;99.90
36002;DHT22;22070;50.922;5.430;2023-02-11T08:41:24;7.10;99.90
36002;DHT22;22070;50.922;5.430;2023-02-11T08:43:50;7.10;99.90
36002;DHT22;22070;50.922;5.430;2023-02-11T08:46:17;7.10;99.90
36002;DHT22;22070;50.922;5.430;2023-02-11T08:48:44;7.30;99.90
36002;DHT22;22070;50.922;5.430;2023-02-11T08:51:16;7.20;99.90
36002;DHT22;22070;50.922;5.430;2023-02-11T08:53:42;7.30;99.90
36002;DHT22;22070;50.922;5.430;2023-02-11T08:56:09;7.20;99.90
36002;DHT22;22070;50.922;5.430;2023-02-11T08:58:35;7.30;99.90
36002;DHT22;22070;50.922;5.430;2023-02-11T09:01:01;7.30;99.90
36002;DHT22;22070;50.922;5.430;2023-02-11T09:03:26;7.30;99.90
36002;DHT22;22070;50.922;5.430;2023-02-11T09:05:52;7.40;99.90
36002;DHT22;22070;50.922;5.430;2023-02-11T09:08:20;7.30;99.90
36002;DHT22;22070;50.922;5.430;2023-02-11T09:10:46;7.40;99.90
36002;DHT22;22070;50.922;5.430;2023-02-11T09:13:12;7.40;99.90
36002;DHT22;22070;50.922;5.430;2023-02-11T09:15:38;7.30;99.90
36002;DHT22;22070;50.922;5.430;2023-02-11T09:18:04;7.40;99.90
36002;DHT22;22070;50.922;5.430;2023-02-11T09:20:30;7.40;99.90
36002;DHT22;22070;50.922;5.430;2023-02-11T09:22:57;7.40;99.90
36002;DHT22;22070;50.922;5.430;2023-02-11T09:25:23;7.40;99.90
36002;DHT22;22070;50.922;5.430;2023-02-11T09:27:49;7.40;99.90
36002;DHT22;22070;50.922;5.430;2023-02-11T09:30:16;7.40;99.90
36002;DHT22;22070;50.922;5.430;2023-02-11T09:32:41;7.40;99.90
36002;DHT22;22070;50.922;5.430;2023-02-11T09:35:07;7.40;99.90
36002;DHT22;22070;50.922;5.430;2023-02-11T09:37:33;7.50;99.90
36002;DHT22;22070;50.922;5.430;2023-02-11T09:39:59;7.50;99.90
36002;DHT22;22070;50.922;5.430;2023-02-11T09:45:04;7.50;99.90
36002;DHT22;22070;50.922;5.430;2023-02-11T09:47:45;7.50;99.90
36002;DHT22;22070;50.922;5.430;2023-02-11T09:50:13;7.50;99.90
36002;DHT22;22070;50.922;5.430;2023-02-11T09:55:37;7.60;99.90
36002;DHT22;22070;50.922;5.430;2023-02-11T09:58:14;7.70;99.90
36002;DHT22;22070;50.922;5.430;2023-02-11T10:00:57;7.70;99.90
36002;DHT22;22070;50.922;5.430;2023-02-11T10:03:46;7.70;99.90
36002;DHT22;22070;50.922;5.430;2023-02-11T10:06:32;7.80;99.90
36002;DHT22;22070;50.922;5.430;2023-02-11T10:09:20;7.70;99.90
36002;DHT22;22070;50.922;5.430;2023-02-11T10:17:04;7.80;99.90
36002;DHT22;22070;50.922;5.430;2023-02-11T10:22:42;7.90;99.90
36002;DHT22;22070;50.922;5.430;2023-02-11T10:25:22;7.80;99.90
36002;DHT22;22070;50.922;5.430;2023-02-11T10:27:49;7.80;99.90
36002;DHT22;22070;50.922;5.430;2023-02-11T10:30:42;7.80;99.90
36002;DHT22;22070;50.922;5.430;2023-02-11T10:35:50;7.90;99.90
36002;DHT22;22070;50.922;5.430;2023-02-11T10:38:16;8.00;99.90
36002;DHT22;22070;50.922;5.430;2023-02-11T10:40:42;8.00;99.90
36002;DHT22;22070;50.922;5.430;2023-02-11T10:43:16;7.90;99.90
36002;DHT22;22070;50.922;5.430;2023-02-11T10:45:49;7.80;99.90
36002;DHT22;22070;50.922;5.430;2023-02-11T10:48:41;8.00;99.90
36002;DHT22;22070;50.922;5.430;2023-02-11T10:51:19;8.00;99.90
36002;DHT22;22070;50.922;5.430;2023-02-11T10:53:47;8.00;99.90
36002;DHT22;22070;50.922;5.430;2023-02-11T10:56:22;7.70;99.90
36002;DHT22;22070;50.922;5.430;2023-02-11T10:58:58;8.00;99.90
36002;DHT22;22070;50.922;5.430;2023-02-11T11:01:44;8.00;99.90
36002;DHT22;22070;50.922;5.430;2023-02-11T11:06:56;8.20;99.90
36002;DHT22;22070;50.922;5.430;2023-02-11T11:09:28;8.20;99.90
36002;DHT22;22070;50.922;5.430;2023-02-11T11:11:57;8.20;99.90
36002;DHT22;22070;50.922;5.430;2023-02-11T11:14:24;8.20;99.90
36002;DHT22;22070;50.922;5.430;2023-02-11T11:16:54;8.20;99.90
36002;DHT22;22070;50.922;5.430;2023-02-11T11:19:23;8.20;99.90
36002;DHT22;22070;50.922;5.430;2023-02-11T11:21:53;8.10;99.90
36002;DHT22;22070;50.922;5.430;2023-02-11T11:24:24;8.20;99.90
36002;DHT22;22070;50.922;5.430;2023-02-11T11:26:55;8.20;99.90
36002;DHT22;22070;50.922;5.430;2023-02-11T11:29:38;8.20;99.90
36002;DHT22;22070;50.922;5.430;2023-02-11T11:32:20;8.20;99.90
36002;DHT22;22070;50.922;5.430;2023-02-11T11:34:52;8.10;99.90
36002;DHT22;22070;50.922;5.430;2023-02-11T11:37:27;8.20;99.90
36002;DHT22;22070;50.922;5.430;2023-02-11T11:42:35;8.20;99.90
36002;DHT22;22070;50.922;5.430;2023-02-11T11:45:21;8.20;99.90
36002;DHT22;22070;50.922;5.430;2023-02-11T11:50:41;8.40;99.90
36002;DHT22;22070;50.922;5.430;2023-02-11T11:56:05;8.30;99.90
36002;DHT22;22070;50.922;5.430;2023-02-11T11:58:34;8.30;99.90
36002;DHT22;22070;50.922;5.430;2023-02-11T12:06:38;8.40;99.90
36002;DHT22;22070;50.922;5.430;2023-02-11T12:12:02;8.40;99.90
36002;DHT22;22070;50.922;5.430;2023-02-11T12:14:40;8.30;99.90
36002;DHT22;22070;50.922;5.430;2023-02-11T12:20:22;8.50;99.90
36002;DHT22;22070;50.922;5.430;2023-02-11T12:34:21;8.50;99.90
36002;DHT22;22070;50.922;5.430;2023-02-11T12:39:45;8.40;99.90
36002;DHT22;22070;50.922;5.430;2023-02-11T12:51:12;8.70;99.90
36002;DHT22;22070;50.922;5.430;2023-02-11T12:54:18;8.80;99.90
36002;DHT22;22070;50.922;5.430;2023-02-11T12:56:52;8.80;99.90
36002;DHT22;22070;50.922;5.430;2023-02-11T13:05:45;8.80;99.90
36002;DHT22;22070;50.922;5.430;2023-02-11T13:07:46;8.80;99.90
36002;DHT22;22070;50.922;5.430;2023-02-11T13:10:36;8.70;99.90
36002;DHT22;22070;50.922;5.430;2023-02-11T13:13:13;8.80;99.90
36002;DHT22;22070;50.922;5.430;2023-02-11T13:15:49;8.80;99.90
36002;DHT22;22070;50.922;5.430;2023-02-11T13:18:49;8.70;99.90
36002;DHT22;22070;50.922;5.430;2023-02-11T13:24:03;8.70;99.90
36002;DHT22;22070;50.922;5.430;2023-02-11T13:26:35;8.80;99.90
36002;DHT22;22070;50.922;5.430;2023-02-11T13:29:28;8.80;99.90
36002;DHT22;22070;50.922;5.430;2023-02-11T13:32:09;8.80;99.90
36002;DHT22;22070;50.922;5.430;2023-02-11T13:37:21;8.90;99.90
36002;DHT22;22070;50.922;5.430;2023-02-11T13:42:53;8.80;99.90
36002;DHT22;22070;50.922;5.430;2023-02-11T13:45:40;8.80;99.90
36002;DHT22;22070;50.922;5.430;2023-02-11T13:48:18;8.80;99.90
36002;DHT22;22070;50.922;5.430;2023-02-11T13:50:48;8.80;99.90
36002;DHT22;22070;50.922;5.430;2023-02-11T13:53:18;8.80;99.90
36002;DHT22;22070;50.922;5.430;2023-02-11T13:55:46;9.00;99.90
36002;DHT22;22070;50.922;5.430;2023-02-11T14:00:45;8.90;99.90
36002;DHT22;22070;50.922;5.430;2023-02-11T14:11:46;8.90;99.90
36002;DHT22;22070;50.922;5.430;2023-02-11T14:14:29;9.00;99.90
36002;DHT22;22070;50.922;5.430;2023-02-11T14:19:31;9.10;99.90
36002;DHT22;22070;50.922;5.430;2023-02-11T14:27:19;9.00;99.90
36002;DHT22;22070;50.922;5.430;2023-02-11T14:29:48;9.20;99.90
36002;DHT22;22070;50.922;5.430;2023-02-11T14:32:43;9.20;99.90
36002;DHT22;22070;50.922;5.430;2023-02-11T14:38:06;9.10;99.90
36002;DHT22;22070;50.922;5.430;2023-02-11T14:43:25;9.00;99.90
36002;DHT22;22070;50.922;5.430;2023-02-11T14:45:55;9.00;99.90
36002;DHT22;22070;50.922;5.430;2023-02-11T14:48:28;9.10;99.90
36002;DHT22;22070;50.922;5.430;2023-02-11T14:51:02;9.10;99.90
36002;DHT22;22070;50.922;5.430;2023-02-11T14:53:30;9.20;99.90
36002;DHT22;22070;50.922;5.430;2023-02-11T14:55:56;9.10;99.90
36002;DHT22;22070;50.922;5.430;2023-02-11T14:58:26;9.10;99.90
36002;DHT22;22070;50.922;5.430;2023-02-11T15:01:04;9.10;99.90
36002;DHT22;22070;50.922;5.430;2023-02-11T15:03:41;9.20;99.90
36002;DHT22;22070;50.922;5.430;2023-02-11T15:06:39;9.30;99.90
36002;DHT22;22070;50.922;5.430;2023-02-11T15:09:19;9.30;99.90
36002;DHT22;22070;50.922;5.430;2023-02-11T15:11:50;9.30;99.90
36002;DHT22;22070;50.922;5.430;2023-02-11T15:16:55;9.30;99.90
36002;DHT22;22070;50.922;5.430;2023-02-11T15:19:29;9.30;99.90
36002;DHT22;22070;50.922;5.430;2023-02-11T15:21:56;9.40;99.90
36002;DHT22;22070;50.922;5.430;2023-02-11T15:24:26;9.40;99.90
36002;DHT22;22070;50.922;5.430;2023-02-11T15:27:02;9.50;99.90
36002;DHT22;22070;50.922;5.430;2023-02-11T15:29:41;9.60;99.90
36002;DHT22;22070;50.922;5.430;2023-02-11T15:34:34;9.40;99.90
36002;DHT22;22070;50.922;5.430;2023-02-11T15:37:02;9.50;99.90
36002;DHT22;22070;50.922;5.430;2023-02-11T15:42:24;9.50;99.90
36002;DHT22;22070;50.922;5.430;2023-02-11T15:45:08;9.50;99.90
36002;DHT22;22070;50.922;5.430;2023-02-11T15:47:36;9.60;99.90
36002;DHT22;22070;50.922;5.430;2023-02-11T15:50:03;9.50;99.90
36002;DHT22;22070;50.922;5.430;2023-02-11T15:52:31;9.50;99.90
36002;DHT22;22070;50.922;5.430;2023-02-11T15:54:59;9.60;99.90
36002;DHT22;22070;50.922;5.430;2023-02-11T15:57:26;9.60;99.90
36002;DHT22;22070;50.922;5.430;2023-02-11T15:59:53;9.60;99.90
36002;DHT22;22070;50.922;5.430;2023-02-11T16:02:32;9.60;99.90
36002;DHT22;22070;50.922;5.430;2023-02-11T16:05:04;9.60;99.90
36002;DHT22;22070;50.922;5.430;2023-02-11T16:07:48;9.60;99.90
36002;DHT22;22070;50.922;5.430;2023-02-11T16:10:21;9.60;99.90
36002;DHT22;22070;50.922;5.430;2023-02-11T16:15:41;9.60;99.90
36002;DHT22;22070;50.922;5.430;2023-02-11T16:18:29;9.70;99.90
36002;DHT22;22070;50.922;5.430;2023-02-11T16:20:57;9.60;99.90
36002;DHT22;22070;50.922;5.430;2023-02-11T16:23:29;9.40;99.90
36002;DHT22;22070;50.922;5.430;2023-02-11T16:26:29;9.40;99.90
36002;DHT22;22070;50.922;5.430;2023-02-11T16:29:23;9.40;99.90
36002;DHT22;22070;50.922;5.430;2023-02-11T16:31:51;9.40;99.90
36002;DHT22;22070;50.922;5.430;2023-02-11T16:34:19;9.40;99.90
36002;DHT22;22070;50.922;5.430;2023-02-11T16:36:46;9.50;99.90
36002;DHT22;22070;50.922;5.430;2023-02-11T16:39:12;9.50;99.90
36002;DHT22;22070;50.922;5.430;2023-02-11T16:41:39;9.40;99.90
36002;DHT22;22070;50.922;5.430;2023-02-11T16:44:05;9.40;99.90
36002;DHT22;22070;50.922;5.430;2023-02-11T16:46:31;9.40;99.90
36002;DHT22;22070;50.922;5.430;2023-02-11T16:48:58;9.40;99.90
36002;DHT22;22070;50.922;5.430;2023-02-11T16:51:28;9.40;99.90
36002;DHT22;22070;50.922;5.430;2023-02-11T16:53:54;9.40;99.90
36002;DHT22;22070;50.922;5.430;2023-02-11T16:56:20;9.30;99.90
36002;DHT22;22070;50.922;5.430;2023-02-11T16:58:45;9.30;99.90
36002;DHT22;22070;50.922;5.430;2023-02-11T17:01:11;9.30;99.90
36002;DHT22;22070;50.922;5.430;2023-02-11T17:03:38;9.30;99.90
36002;DHT22;22070;50.922;5.430;2023-02-11T17:06:11;9.20;99.90
36002;DHT22;22070;50.922;5.430;2023-02-11T17:08:38;9.30;99.90
36002;DHT22;22070;50.922;5.430;2023-02-11T17:11:05;9.30;99.90
36002;DHT22;22070;50.922;5.430;2023-02-11T17:13:31;9.30;99.90
36002;DHT22;22070;50.922;5.430;2023-02-11T17:15:57;9.20;99.90
36002;DHT22;22070;50.922;5.430;2023-02-11T17:18:23;9.10;99.90
36002;DHT22;22070;50.922;5.430;2023-02-11T17:20:49;9.20;99.90
36002;DHT22;22070;50.922;5.430;2023-02-11T17:23:14;9.30;99.90
36002;DHT22;22070;50.922;5.430;2023-02-11T17:25:40;9.30;99.90
36002;DHT22;22070;50.922;5.430;2023-02-11T17:28:08;9.30;99.90
36002;DHT22;22070;50.922;5.430;2023-02-11T17:30:38;9.30;99.90
36002;DHT22;22070;50.922;5.430;2023-02-11T17:33:05;9.30;99.90
36002;DHT22;22070;50.922;5.430;2023-02-11T17:35:32;9.30;99.90
36002;DHT22;22070;50.922;5.430;2023-02-11T17:37:57;9.30;99.90
36002;DHT22;22070;50.922;5.430;2023-02-11T17:40:23;9.30;99.90
36002;DHT22;22070;50.922;5.430;2023-02-11T17:42:49;9.30;99.90
36002;DHT22;22070;50.922;5.430;2023-02-11T17:45:15;9.30;99.90
36002;DHT22;22070;50.922;5.430;2023-02-11T17:47:41;9.30;99.90
36002;DHT22;22070;50.922;5.430;2023-02-11T17:50:07;9.40;99.90
36002;DHT22;22070;50.922;5.430;2023-02-11T17:52:33;9.30;99.90
36002;DHT22;22070;50.922;5.430;2023-02-11T17:54:58;9.30;99.90
36002;DHT22;22070;50.922;5.430;2023-02-11T17:57:24;9.30;99.90
36002;DHT22;22070;50.922;5.430;2023-02-11T17:59:50;9.30;99.90
36002;DHT22;22070;50.922;5.430;2023-02-11T18:02:15;9.30;99.90
36002;DHT22;22070;50.922;5.430;2023-02-11T18:04:41;9.40;99.90
36002;DHT22;22070;50.922;5.430;2023-02-11T18:07:07;9.30;99.90
36002;DHT22;22070;50.922;5.430;2023-02-11T18:09:37;9.30;99.90
36002;DHT22;22070;50.922;5.430;2023-02-11T18:12:04;9.30;99.90
36002;DHT22;22070;50.922;5.430;2023-02-11T18:14:29;9.30;99.90
36002;DHT22;22070;50.922;5.430;2023-02-11T18:16:55;9.30;99.90
36002;DHT22;22070;50.922;5.430;2023-02-11T18:19:21;9.30;99.90
36002;DHT22;22070;50.922;5.430;2023-02-11T18:21:46;9.30;99.90